SAS1794 LFLL-EKCH
Flight info
| Callsign | SAS1794 |
|---|---|
| Flight time | 1h 50m |
| Altitude | 36000 |
| Route | RISOR T45 SOSAL N871 KORED DCT BERSU DCT DITON/N0455F350 DCT LOKTA DCT TEDGO DCT HAREM DCT LOHRE DCT BERXO DCT MAKEL N851 GESKA Z711 MONAK |
| Aircraft | A320/M-SDE3FGHIRWY/LB1 |
Departure
| Time | 2026-04-22 16:36 |
|---|---|
| Airport | Lyon Saint-Exupéry Airport (LFLL) |
Arrival
| Time | 2026-04-22 18:26 |
|---|---|
| Airport | Copenhagen Kastrup Airport (EKCH) |
| Time | Latitude | Longitude | Altitude | Speed | Heading |
|---|---|---|---|---|---|
| 2026-04-22 15:57 | 45.72144 | 5.08175 | 797 ft | 0 kts | 269° |
| 2026-04-22 16:25 | 45.72144 | 5.08199 | 796 ft | 4 kts | 274° |
| 2026-04-22 16:26 | 45.72141 | 5.08238 | 797 ft | 4 kts | 277° |
| 2026-04-22 16:26 | 45.72139 | 5.08274 | 797 ft | 4 kts | 263° |
| 2026-04-22 16:26 | 45.72148 | 5.08306 | 798 ft | 4 kts | 214° |
| 2026-04-22 16:26 | 45.72159 | 5.08315 | 798 ft | 0 kts | 198° |
| 2026-04-22 16:29 | 45.72117 | 5.08295 | 798 ft | 18 kts | 197° |
| 2026-04-22 16:29 | 45.72022 | 5.08254 | 797 ft | 11 kts | 192° |
| 2026-04-22 16:29 | 45.71972 | 5.08297 | 799 ft | 7 kts | 115° |
| 2026-04-22 16:29 | 45.71959 | 5.08351 | 799 ft | 4 kts | 104° |
| 2026-04-22 16:30 | 45.71955 | 5.08373 | 800 ft | 3 kts | 103° |
| 2026-04-22 16:30 | 45.71906 | 5.08467 | 802 ft | 15 kts | 172° |
| 2026-04-22 16:30 | 45.71755 | 5.08486 | 802 ft | 24 kts | 175° |
| 2026-04-22 16:30 | 45.71609 | 5.08502 | 802 ft | 18 kts | 174° |
| 2026-04-22 16:31 | 45.71495 | 5.08518 | 804 ft | 15 kts | 174° |
| 2026-04-22 16:31 | 45.71419 | 5.08528 | 809 ft | 8 kts | 175° |
| 2026-04-22 16:31 | 45.71385 | 5.08531 | 811 ft | 2 kts | 177° |
| 2026-04-22 16:31 | 45.71362 | 5.08532 | 812 ft | 8 kts | 178° |
| 2026-04-22 16:32 | 45.71267 | 5.08540 | 813 ft | 19 kts | 176° |
| 2026-04-22 16:32 | 45.71161 | 5.08570 | 816 ft | 13 kts | 155° |
| 2026-04-22 16:32 | 45.71117 | 5.08646 | 818 ft | 8 kts | 109° |
| 2026-04-22 16:32 | 45.71106 | 5.08707 | 813 ft | 5 kts | 103° |
| 2026-04-22 16:33 | 45.71100 | 5.08744 | 818 ft | 3 kts | 103° |
| 2026-04-22 16:33 | 45.71096 | 5.08766 | 819 ft | 2 kts | 103° |
| 2026-04-22 16:33 | 45.71095 | 5.08775 | 819 ft | 1 kts | 103° |
| 2026-04-22 16:33 | 45.71087 | 5.08821 | 818 ft | 0 kts | 104° |
| 2026-04-22 16:34 | 45.71082 | 5.08848 | 819 ft | 4 kts | 104° |
| 2026-04-22 16:34 | 45.71078 | 5.08883 | 820 ft | 7 kts | 95° |
| 2026-04-22 16:34 | 45.71091 | 5.08982 | 821 ft | 10 kts | 64° |
| 2026-04-22 16:35 | 45.71152 | 5.09024 | 817 ft | 9 kts | 357° |
| 2026-04-22 16:35 | 45.71170 | 5.09023 | 819 ft | 11 kts | 357° |
| 2026-04-22 16:35 | 45.71510 | 5.08981 | 814 ft | 85 kts | 355° |
| 2026-04-22 16:35 | 45.72306 | 5.08885 | 800 ft | 141 kts | 355° |
| 2026-04-22 16:36 | 45.73432 | 5.08739 | 905 ft | 175 kts | 354° |
| 2026-04-22 16:36 | 45.74213 | 5.08616 | 1480 ft | 164 kts | 354° |
| 2026-04-22 16:36 | 45.75647 | 5.08389 | 2621 ft | 152 kts | 355° |
| 2026-04-22 16:36 | 45.76724 | 5.08249 | 3080 ft | 163 kts | 358° |
| 2026-04-22 16:37 | 45.77508 | 5.08167 | 3277 ft | 177 kts | 358° |
| 2026-04-22 16:37 | 45.78817 | 5.08033 | 3522 ft | 199 kts | 358° |
| 2026-04-22 16:37 | 45.80283 | 5.07878 | 3767 ft | 224 kts | 357° |
| 2026-04-22 16:37 | 45.81916 | 5.07754 | 4209 ft | 241 kts | 5° |
| 2026-04-22 16:38 | 45.83466 | 5.08639 | 4901 ft | 246 kts | 43° |
| 2026-04-22 16:38 | 45.84329 | 5.10716 | 5602 ft | 251 kts | 79° |
| 2026-04-22 16:38 | 45.84150 | 5.13197 | 6317 ft | 257 kts | 116° |
| 2026-04-22 16:38 | 45.82965 | 5.15074 | 7084 ft | 259 kts | 150° |
| 2026-04-22 16:39 | 45.81306 | 5.16088 | 7848 ft | 262 kts | 164° |
| 2026-04-22 16:39 | 45.79538 | 5.16774 | 8620 ft | 265 kts | 167° |
| 2026-04-22 16:39 | 45.77732 | 5.17436 | 9379 ft | 270 kts | 166° |
| 2026-04-22 16:39 | 45.75911 | 5.18187 | 10127 ft | 274 kts | 164° |
| 2026-04-22 16:40 | 45.74079 | 5.19041 | 10784 ft | 280 kts | 162° |
| 2026-04-22 16:40 | 45.72291 | 5.20225 | 11412 ft | 287 kts | 147° |
| 2026-04-22 16:40 | 45.69470 | 5.24634 | 11997 ft | 327 kts | 124° |
| 2026-04-22 16:41 | 45.68132 | 5.27408 | 12163 ft | 350 kts | 124° |
| 2026-04-22 16:41 | 45.66700 | 5.30362 | 12298 ft | 372 kts | 124° |
| 2026-04-22 16:41 | 45.65180 | 5.33477 | 12610 ft | 387 kts | 124° |
| 2026-04-22 16:41 | 45.63619 | 5.36656 | 13155 ft | 394 kts | 124° |
| 2026-04-22 16:42 | 45.62027 | 5.39883 | 13758 ft | 400 kts | 124° |
| 2026-04-22 16:42 | 45.60405 | 5.43156 | 14299 ft | 405 kts | 124° |
| 2026-04-22 16:42 | 45.58764 | 5.46460 | 14842 ft | 410 kts | 124° |
| 2026-04-22 16:42 | 45.57127 | 5.49756 | 15409 ft | 413 kts | 124° |
| 2026-04-22 16:43 | 45.55451 | 5.53125 | 15947 ft | 418 kts | 125° |
| 2026-04-22 16:43 | 45.53796 | 5.56557 | 16468 ft | 422 kts | 120° |
| 2026-04-22 16:43 | 45.52495 | 5.60326 | 16956 ft | 425 kts | 109° |
| 2026-04-22 16:43 | 45.51687 | 5.64397 | 17456 ft | 427 kts | 98° |
| 2026-04-22 16:44 | 45.51406 | 5.68608 | 17935 ft | 428 kts | 86° |
| 2026-04-22 16:44 | 45.51642 | 5.72786 | 18409 ft | 428 kts | 78° |
| 2026-04-22 16:44 | 45.52049 | 5.77007 | 18847 ft | 432 kts | 78° |
| 2026-04-22 16:44 | 45.52452 | 5.81271 | 19321 ft | 435 kts | 78° |
| 2026-04-22 16:45 | 45.52854 | 5.85559 | 19798 ft | 436 kts | 77° |
| 2026-04-22 16:45 | 45.53558 | 5.89752 | 20224 ft | 433 kts | 65° |
| 2026-04-22 16:45 | 45.54771 | 5.93668 | 20696 ft | 428 kts | 54° |
| 2026-04-22 16:45 | 45.56411 | 5.97136 | 21114 ft | 423 kts | 44° |
| 2026-04-22 16:46 | 45.58437 | 6.00127 | 21551 ft | 417 kts | 34° |
| 2026-04-22 16:46 | 45.60757 | 6.02560 | 21896 ft | 412 kts | 25° |
| 2026-04-22 16:46 | 45.63203 | 6.04715 | 22324 ft | 413 kts | 25° |
| 2026-04-22 16:46 | 45.65652 | 6.06876 | 22775 ft | 414 kts | 25° |
| 2026-04-22 16:47 | 45.68103 | 6.09045 | 23195 ft | 415 kts | 25° |
| 2026-04-22 16:47 | 45.70569 | 6.11235 | 23573 ft | 418 kts | 25° |
| 2026-04-22 16:47 | 45.73053 | 6.13443 | 23923 ft | 421 kts | 25° |
| 2026-04-22 16:47 | 45.75553 | 6.15668 | 24262 ft | 423 kts | 25° |
| 2026-04-22 16:48 | 45.78060 | 6.17898 | 24623 ft | 426 kts | 25° |
| 2026-04-22 16:48 | 45.80589 | 6.20153 | 25037 ft | 429 kts | 25° |
| 2026-04-22 16:48 | 45.83132 | 6.22423 | 25352 ft | 432 kts | 25° |
| 2026-04-22 16:48 | 45.85686 | 6.24706 | 25683 ft | 434 kts | 25° |
| 2026-04-22 16:49 | 45.88256 | 6.27005 | 26036 ft | 436 kts | 25° |
| 2026-04-22 16:49 | 45.90840 | 6.29318 | 26346 ft | 439 kts | 25° |
| 2026-04-22 16:49 | 45.93440 | 6.31650 | 26668 ft | 441 kts | 25° |
| 2026-04-22 16:49 | 45.96021 | 6.33970 | 27011 ft | 443 kts | 24° |
| 2026-04-22 16:50 | 45.98642 | 6.36332 | 27322 ft | 444 kts | 24° |
| 2026-04-22 16:50 | 46.01270 | 6.38704 | 27573 ft | 445 kts | 24° |
| 2026-04-22 16:50 | 46.03897 | 6.41076 | 27824 ft | 447 kts | 24° |
| 2026-04-22 16:50 | 46.06548 | 6.43466 | 28127 ft | 450 kts | 24° |
| 2026-04-22 16:51 | 46.09204 | 6.45859 | 28412 ft | 451 kts | 24° |
| 2026-04-22 16:51 | 46.11870 | 6.48270 | 28666 ft | 453 kts | 23° |
| 2026-04-22 16:51 | 46.14506 | 6.50662 | 29000 ft | 453 kts | 23° |
| 2026-04-22 16:51 | 46.17181 | 6.53092 | 29397 ft | 452 kts | 23° |
| 2026-04-22 16:52 | 46.19840 | 6.55508 | 29837 ft | 451 kts | 23° |
| 2026-04-22 16:52 | 46.22490 | 6.57916 | 30253 ft | 449 kts | 22° |
| 2026-04-22 16:52 | 46.25132 | 6.60319 | 30590 ft | 448 kts | 22° |
| 2026-04-22 16:52 | 46.27780 | 6.62729 | 31044 ft | 446 kts | 23° |
| 2026-04-22 16:53 | 46.30396 | 6.65118 | 31444 ft | 444 kts | 23° |
| 2026-04-22 16:53 | 46.32967 | 6.67468 | 31821 ft | 441 kts | 23° |
| 2026-04-22 16:53 | 46.35552 | 6.69832 | 32199 ft | 439 kts | 23° |
| 2026-04-22 16:53 | 46.38136 | 6.72197 | 32621 ft | 437 kts | 23° |
| 2026-04-22 16:54 | 46.40701 | 6.74546 | 33037 ft | 434 kts | 23° |
| 2026-04-22 16:54 | 46.43252 | 6.76884 | 33428 ft | 432 kts | 23° |
| 2026-04-22 16:54 | 46.45780 | 6.79205 | 33795 ft | 430 kts | 23° |
| 2026-04-22 16:54 | 46.48307 | 6.81528 | 34140 ft | 428 kts | 23° |
| 2026-04-22 16:55 | 46.50815 | 6.83839 | 34428 ft | 427 kts | 24° |
| 2026-04-22 16:55 | 46.53297 | 6.86130 | 34681 ft | 427 kts | 25° |
| 2026-04-22 16:55 | 46.55694 | 6.88767 | 34949 ft | 437 kts | 34° |
| 2026-04-22 16:55 | 46.57810 | 6.92001 | 35173 ft | 447 kts | 43° |
| 2026-04-22 16:56 | 46.59764 | 6.95526 | 35389 ft | 448 kts | 43° |
| 2026-04-22 16:56 | 46.61718 | 6.99056 | 35633 ft | 447 kts | 43° |
| 2026-04-22 16:56 | 46.63677 | 7.02591 | 35839 ft | 447 kts | 43° |
| 2026-04-22 16:56 | 46.65626 | 7.06113 | 36047 ft | 447 kts | 43° |
| 2026-04-22 16:57 | 46.67560 | 7.09606 | 36137 ft | 448 kts | 43° |
| 2026-04-22 16:57 | 46.71489 | 7.16705 | 36147 ft | 450 kts | 43° |
| 2026-04-22 16:58 | 46.74756 | 7.22618 | 36159 ft | 450 kts | 44° |
| 2026-04-22 16:58 | 46.79321 | 7.30924 | 36136 ft | 450 kts | 44° |
| 2026-04-22 16:59 | 46.83233 | 7.38068 | 36136 ft | 450 kts | 44° |
| 2026-04-22 16:59 | 46.87129 | 7.45198 | 36132 ft | 450 kts | 44° |
| 2026-04-22 17:00 | 46.91035 | 7.52368 | 36134 ft | 450 kts | 44° |
| 2026-04-22 17:00 | 46.96884 | 7.63156 | 36159 ft | 451 kts | 45° |
| 2026-04-22 17:01 | 47.00762 | 7.70318 | 36154 ft | 451 kts | 45° |
| 2026-04-22 17:01 | 47.04660 | 7.77542 | 36156 ft | 451 kts | 45° |
| 2026-04-22 17:02 | 47.08544 | 7.84782 | 36166 ft | 451 kts | 45° |
| 2026-04-22 17:02 | 47.12399 | 7.91984 | 36176 ft | 451 kts | 46° |
| 2026-04-22 17:03 | 47.15936 | 7.99683 | 36179 ft | 455 kts | 52° |
| 2026-04-22 17:03 | 47.19305 | 8.07580 | 36177 ft | 455 kts | 52° |
| 2026-04-22 17:04 | 47.22643 | 8.15425 | 36175 ft | 455 kts | 52° |
| 2026-04-22 17:04 | 47.25995 | 8.23342 | 36184 ft | 454 kts | 52° |
| 2026-04-22 17:05 | 47.29497 | 8.31055 | 36217 ft | 448 kts | 44° |
| 2026-04-22 17:05 | 47.34054 | 8.37026 | 36213 ft | 436 kts | 28° |
| 2026-04-22 17:06 | 47.39136 | 8.41917 | 36205 ft | 436 kts | 28° |
| 2026-04-22 17:06 | 47.44212 | 8.46821 | 36223 ft | 436 kts | 28° |
| 2026-04-22 17:07 | 47.49291 | 8.51756 | 36234 ft | 436 kts | 29° |
| 2026-04-22 17:07 | 47.54351 | 8.56680 | 36229 ft | 436 kts | 29° |
| 2026-04-22 17:08 | 47.59390 | 8.61593 | 36223 ft | 435 kts | 29° |
| 2026-04-22 17:08 | 47.64444 | 8.66548 | 36223 ft | 435 kts | 29° |
| 2026-04-22 17:09 | 47.69511 | 8.71509 | 36224 ft | 435 kts | 29° |
| 2026-04-22 17:09 | 47.74566 | 8.76467 | 36227 ft | 435 kts | 29° |
| 2026-04-22 17:10 | 47.79594 | 8.81412 | 36230 ft | 435 kts | 29° |
| 2026-04-22 17:10 | 47.84643 | 8.86383 | 36233 ft | 435 kts | 30° |
| 2026-04-22 17:11 | 47.89699 | 8.91383 | 36268 ft | 435 kts | 30° |
| 2026-04-22 17:11 | 47.94742 | 8.96394 | 36262 ft | 435 kts | 30° |
| 2026-04-22 17:12 | 47.99763 | 9.01381 | 36256 ft | 435 kts | 30° |
| 2026-04-22 17:12 | 48.04801 | 9.06397 | 36251 ft | 435 kts | 30° |
| 2026-04-22 17:13 | 48.09837 | 9.11439 | 36266 ft | 435 kts | 31° |
| 2026-04-22 17:13 | 48.14926 | 9.16279 | 36263 ft | 432 kts | 23° |
| 2026-04-22 17:14 | 48.20595 | 9.18927 | 36244 ft | 426 kts | 6° |
| 2026-04-22 17:14 | 48.26486 | 9.19921 | 36248 ft | 425 kts | 5° |
| 2026-04-22 17:15 | 48.32373 | 9.20909 | 36250 ft | 426 kts | 5° |
| 2026-04-22 17:15 | 48.38262 | 9.21906 | 36250 ft | 426 kts | 5° |
| 2026-04-22 17:16 | 48.44162 | 9.22909 | 36247 ft | 427 kts | 5° |
| 2026-04-22 17:16 | 48.50062 | 9.23910 | 36248 ft | 427 kts | 5° |
| 2026-04-22 17:17 | 48.55930 | 9.24906 | 36250 ft | 427 kts | 5° |
| 2026-04-22 17:17 | 48.61842 | 9.25913 | 36251 ft | 427 kts | 5° |
| 2026-04-22 17:18 | 48.67719 | 9.26855 | 36251 ft | 427 kts | 5° |
| 2026-04-22 17:18 | 48.73628 | 9.27736 | 36243 ft | 427 kts | 5° |
| 2026-04-22 17:19 | 48.85455 | 9.29516 | 36248 ft | 426 kts | 5° |
| 2026-04-22 17:20 | 48.97252 | 9.31345 | 36261 ft | 426 kts | 5° |
| 2026-04-22 17:21 | 49.06076 | 9.32701 | 36266 ft | 426 kts | 5° |
| 2026-04-22 17:22 | 49.14936 | 9.34076 | 36272 ft | 425 kts | 6° |
| 2026-04-22 17:23 | 49.22774 | 9.35309 | 36273 ft | 426 kts | 6° |
| 2026-04-22 17:23 | 49.31602 | 9.36674 | 36258 ft | 426 kts | 6° |
| 2026-04-22 17:24 | 49.38462 | 9.37745 | 36270 ft | 426 kts | 6° |
| 2026-04-22 17:24 | 49.43373 | 9.38520 | 36276 ft | 426 kts | 6° |
| 2026-04-22 17:25 | 49.49269 | 9.39456 | 36280 ft | 426 kts | 6° |
| 2026-04-22 17:25 | 49.55177 | 9.40386 | 36300 ft | 426 kts | 6° |
| 2026-04-22 17:26 | 49.61045 | 9.41312 | 36302 ft | 426 kts | 6° |
| 2026-04-22 17:26 | 49.66958 | 9.42249 | 36303 ft | 426 kts | 6° |
| 2026-04-22 17:27 | 49.72867 | 9.43187 | 36309 ft | 426 kts | 6° |
| 2026-04-22 17:27 | 49.78733 | 9.44125 | 36312 ft | 426 kts | 6° |
| 2026-04-22 17:28 | 49.84640 | 9.45078 | 36296 ft | 426 kts | 6° |
| 2026-04-22 17:28 | 49.90541 | 9.46023 | 36302 ft | 426 kts | 6° |
| 2026-04-22 17:29 | 49.96454 | 9.46969 | 36306 ft | 427 kts | 6° |
| 2026-04-22 17:29 | 50.02366 | 9.47917 | 36295 ft | 427 kts | 6° |
| 2026-04-22 17:30 | 50.08210 | 9.49122 | 36287 ft | 426 kts | 13° |
| 2026-04-22 17:30 | 50.14015 | 9.51085 | 36290 ft | 426 kts | 13° |
| 2026-04-22 17:31 | 50.19834 | 9.53039 | 36294 ft | 427 kts | 12° |
| 2026-04-22 17:31 | 50.25633 | 9.54979 | 36298 ft | 428 kts | 12° |
| 2026-04-22 17:32 | 50.31466 | 9.56925 | 36301 ft | 428 kts | 13° |
| 2026-04-22 17:32 | 50.37291 | 9.58881 | 36306 ft | 428 kts | 13° |
| 2026-04-22 17:33 | 50.43129 | 9.60854 | 36314 ft | 429 kts | 13° |
| 2026-04-22 17:33 | 50.48939 | 9.62822 | 36300 ft | 429 kts | 13° |
| 2026-04-22 17:34 | 50.54777 | 9.64814 | 36316 ft | 430 kts | 13° |
| 2026-04-22 17:34 | 50.60642 | 9.66813 | 36314 ft | 431 kts | 13° |
| 2026-04-22 17:35 | 50.66503 | 9.68820 | 36321 ft | 431 kts | 13° |
| 2026-04-22 17:35 | 50.72367 | 9.70830 | 36325 ft | 431 kts | 13° |
| 2026-04-22 17:36 | 50.78204 | 9.72837 | 36328 ft | 431 kts | 13° |
| 2026-04-22 17:36 | 50.84070 | 9.74855 | 36329 ft | 431 kts | 13° |
| 2026-04-22 17:37 | 50.89942 | 9.76879 | 36331 ft | 431 kts | 13° |
| 2026-04-22 17:37 | 50.95762 | 9.78883 | 36326 ft | 431 kts | 13° |
| 2026-04-22 17:38 | 51.01619 | 9.80912 | 36325 ft | 431 kts | 14° |
| 2026-04-22 17:38 | 51.07484 | 9.82955 | 36325 ft | 430 kts | 14° |
| 2026-04-22 17:39 | 51.13350 | 9.85005 | 36324 ft | 431 kts | 14° |
| 2026-04-22 17:40 | 51.22096 | 9.88082 | 36326 ft | 431 kts | 17° |
| 2026-04-22 17:40 | 51.27779 | 9.91114 | 36320 ft | 430 kts | 20° |
| 2026-04-22 17:41 | 51.33442 | 9.94231 | 36325 ft | 430 kts | 20° |
| 2026-04-22 17:41 | 51.39101 | 9.97364 | 36317 ft | 430 kts | 20° |
| 2026-04-22 17:42 | 51.44754 | 10.00502 | 36322 ft | 430 kts | 21° |
| 2026-04-22 17:42 | 51.50378 | 10.03627 | 36337 ft | 430 kts | 21° |
| 2026-04-22 17:43 | 51.56047 | 10.06788 | 36328 ft | 430 kts | 21° |
| 2026-04-22 17:43 | 51.61710 | 10.09962 | 36326 ft | 431 kts | 21° |
| 2026-04-22 17:44 | 51.67364 | 10.13171 | 36327 ft | 431 kts | 21° |
| 2026-04-22 17:44 | 51.72981 | 10.16380 | 36330 ft | 431 kts | 21° |
| 2026-04-22 17:45 | 51.78633 | 10.19612 | 36329 ft | 430 kts | 21° |
| 2026-04-22 17:45 | 51.84285 | 10.22836 | 36314 ft | 430 kts | 21° |
| 2026-04-22 17:46 | 51.89938 | 10.26079 | 36314 ft | 431 kts | 22° |
| 2026-04-22 17:46 | 51.95553 | 10.29325 | 36313 ft | 431 kts | 22° |
| 2026-04-22 17:47 | 52.01200 | 10.32585 | 36315 ft | 431 kts | 22° |
| 2026-04-22 17:47 | 52.06863 | 10.35855 | 36314 ft | 431 kts | 22° |
| 2026-04-22 17:48 | 52.11559 | 10.38577 | 36313 ft | 431 kts | 23° |
| 2026-04-22 17:48 | 52.18178 | 10.42426 | 36315 ft | 432 kts | 23° |
| 2026-04-22 17:49 | 52.23815 | 10.45716 | 36320 ft | 432 kts | 23° |
| 2026-04-22 17:49 | 52.29487 | 10.49034 | 36323 ft | 432 kts | 23° |
| 2026-04-22 17:50 | 52.35150 | 10.52356 | 36316 ft | 432 kts | 24° |
| 2026-04-22 17:50 | 52.40787 | 10.55681 | 36322 ft | 432 kts | 24° |
| 2026-04-22 17:51 | 52.46457 | 10.59022 | 36323 ft | 432 kts | 24° |
| 2026-04-22 17:51 | 52.52119 | 10.62375 | 36323 ft | 432 kts | 24° |
| 2026-04-22 17:52 | 52.57769 | 10.65717 | 36307 ft | 432 kts | 25° |
| 2026-04-22 17:52 | 52.63424 | 10.69081 | 36314 ft | 431 kts | 25° |
| 2026-04-22 17:53 | 52.69037 | 10.72427 | 36313 ft | 431 kts | 25° |
| 2026-04-22 17:53 | 52.74681 | 10.75797 | 36314 ft | 431 kts | 25° |
| 2026-04-22 17:54 | 52.80330 | 10.79180 | 36297 ft | 431 kts | 25° |
| 2026-04-22 17:54 | 52.85968 | 10.82576 | 36303 ft | 431 kts | 25° |
| 2026-04-22 17:55 | 52.90664 | 10.85402 | 36306 ft | 430 kts | 25° |
| 2026-04-22 17:55 | 52.97212 | 10.89358 | 36303 ft | 430 kts | 25° |
| 2026-04-22 17:56 | 53.02836 | 10.92772 | 36302 ft | 430 kts | 25° |
| 2026-04-22 17:56 | 53.08470 | 10.96196 | 36298 ft | 430 kts | 26° |
| 2026-04-22 17:57 | 53.14098 | 10.99632 | 36298 ft | 430 kts | 26° |
| 2026-04-22 17:57 | 53.19725 | 11.03072 | 36303 ft | 430 kts | 26° |
| 2026-04-22 17:58 | 53.25317 | 11.06496 | 36286 ft | 430 kts | 26° |
| 2026-04-22 17:58 | 53.30940 | 11.09955 | 36300 ft | 429 kts | 26° |
| 2026-04-22 17:59 | 53.36546 | 11.13412 | 36307 ft | 429 kts | 26° |
| 2026-04-22 17:59 | 53.42154 | 11.16886 | 36310 ft | 429 kts | 26° |
| 2026-04-22 18:00 | 53.46811 | 11.19772 | 36254 ft | 429 kts | 26° |
| 2026-04-22 18:00 | 53.53317 | 11.23812 | 36302 ft | 428 kts | 27° |
| 2026-04-22 18:01 | 53.58901 | 11.27292 | 36308 ft | 427 kts | 27° |
| 2026-04-22 18:01 | 53.64482 | 11.30788 | 36314 ft | 427 kts | 27° |
| 2026-04-22 18:02 | 53.70062 | 11.34292 | 36314 ft | 427 kts | 27° |
| 2026-04-22 18:02 | 53.75602 | 11.37776 | 36305 ft | 427 kts | 27° |
| 2026-04-22 18:03 | 53.81156 | 11.41265 | 35693 ft | 425 kts | 27° |
| 2026-04-22 18:03 | 53.83933 | 11.43014 | 34951 ft | 426 kts | 28° |
| 2026-04-22 18:03 | 53.86716 | 11.44777 | 34232 ft | 427 kts | 29° |
| 2026-04-22 18:03 | 53.89508 | 11.46554 | 33404 ft | 427 kts | 29° |
| 2026-04-22 18:04 | 53.92302 | 11.48331 | 32596 ft | 428 kts | 29° |
| 2026-04-22 18:04 | 53.95069 | 11.50094 | 31800 ft | 431 kts | 29° |
| 2026-04-22 18:04 | 53.97886 | 11.51891 | 31042 ft | 433 kts | 28° |
| 2026-04-22 18:04 | 54.00725 | 11.53702 | 30269 ft | 437 kts | 28° |
| 2026-04-22 18:05 | 54.03583 | 11.55528 | 29424 ft | 440 kts | 28° |
| 2026-04-22 18:05 | 54.06466 | 11.57374 | 28634 ft | 443 kts | 27° |
| 2026-04-22 18:05 | 54.09359 | 11.59226 | 28329 ft | 446 kts | 26° |
| 2026-04-22 18:06 | 54.15211 | 11.62971 | 28198 ft | 447 kts | 26° |
| 2026-04-22 18:06 | 54.18086 | 11.64807 | 27350 ft | 445 kts | 26° |
| 2026-04-22 18:06 | 54.20973 | 11.66655 | 26558 ft | 441 kts | 25° |
| 2026-04-22 18:06 | 54.23831 | 11.68493 | 25823 ft | 436 kts | 24° |
| 2026-04-22 18:07 | 54.25704 | 11.69704 | 25349 ft | 434 kts | 24° |
| 2026-04-22 18:07 | 54.29467 | 11.72144 | 24419 ft | 430 kts | 23° |
| 2026-04-22 18:07 | 54.32261 | 11.73959 | 23721 ft | 427 kts | 22° |
| 2026-04-22 18:07 | 54.35027 | 11.75756 | 22963 ft | 423 kts | 22° |
| 2026-04-22 18:08 | 54.37742 | 11.77516 | 22292 ft | 419 kts | 22° |
| 2026-04-22 18:08 | 54.40453 | 11.79277 | 21653 ft | 414 kts | 22° |
| 2026-04-22 18:08 | 54.43144 | 11.81033 | 21024 ft | 410 kts | 22° |
| 2026-04-22 18:08 | 54.44907 | 11.82186 | 20633 ft | 407 kts | 22° |
| 2026-04-22 18:09 | 54.47535 | 11.83907 | 20047 ft | 402 kts | 22° |
| 2026-04-22 18:09 | 54.50131 | 11.85608 | 19484 ft | 397 kts | 22° |
| 2026-04-22 18:09 | 54.52701 | 11.87289 | 18910 ft | 393 kts | 22° |
| 2026-04-22 18:09 | 54.55248 | 11.88958 | 18327 ft | 389 kts | 21° |
| 2026-04-22 18:10 | 54.57768 | 11.90614 | 17711 ft | 385 kts | 21° |
| 2026-04-22 18:10 | 54.60267 | 11.92228 | 17102 ft | 382 kts | 20° |
| 2026-04-22 18:10 | 54.62773 | 11.93672 | 16513 ft | 378 kts | 18° |
| 2026-04-22 18:10 | 54.65289 | 11.94986 | 15941 ft | 375 kts | 17° |
| 2026-04-22 18:11 | 54.67758 | 11.96208 | 15382 ft | 372 kts | 16° |
| 2026-04-22 18:11 | 54.70238 | 11.97421 | 14832 ft | 369 kts | 16° |
| 2026-04-22 18:11 | 54.72703 | 11.98644 | 14297 ft | 366 kts | 16° |
| 2026-04-22 18:11 | 54.75141 | 11.99881 | 13739 ft | 363 kts | 16° |
| 2026-04-22 18:12 | 54.77554 | 12.01132 | 13163 ft | 360 kts | 17° |
| 2026-04-22 18:12 | 54.79940 | 12.02386 | 12598 ft | 356 kts | 17° |
| 2026-04-22 18:12 | 54.82287 | 12.03624 | 12049 ft | 352 kts | 16° |
| 2026-04-22 18:12 | 54.84588 | 12.04837 | 11503 ft | 348 kts | 16° |
| 2026-04-22 18:13 | 54.86904 | 12.06057 | 10952 ft | 345 kts | 16° |
| 2026-04-22 18:13 | 54.89187 | 12.07259 | 10400 ft | 341 kts | 16° |
| 2026-04-22 18:13 | 54.91436 | 12.08440 | 10087 ft | 330 kts | 16° |
| 2026-04-22 18:13 | 54.93592 | 12.09570 | 9953 ft | 314 kts | 15° |
| 2026-04-22 18:14 | 54.95646 | 12.10653 | 9815 ft | 301 kts | 15° |
| 2026-04-22 18:14 | 54.97581 | 12.11679 | 9680 ft | 288 kts | 15° |
| 2026-04-22 18:14 | 54.99464 | 12.12678 | 9552 ft | 276 kts | 15° |
| 2026-04-22 18:14 | 55.01265 | 12.13634 | 9389 ft | 266 kts | 15° |
| 2026-04-22 18:15 | 55.03026 | 12.14568 | 9084 ft | 262 kts | 15° |
| 2026-04-22 18:15 | 55.04772 | 12.15489 | 8696 ft | 260 kts | 15° |
| 2026-04-22 18:15 | 55.06501 | 12.16401 | 8328 ft | 259 kts | 15° |
| 2026-04-22 18:15 | 55.08199 | 12.17301 | 7949 ft | 258 kts | 14° |
| 2026-04-22 18:16 | 55.09907 | 12.18209 | 7563 ft | 257 kts | 14° |
| 2026-04-22 18:16 | 55.11616 | 12.19122 | 7179 ft | 256 kts | 14° |
| 2026-04-22 18:16 | 55.13320 | 12.20031 | 6800 ft | 254 kts | 14° |
| 2026-04-22 18:16 | 55.14999 | 12.20923 | 6544 ft | 247 kts | 14° |
| 2026-04-22 18:17 | 55.16611 | 12.21784 | 6415 ft | 236 kts | 14° |
| 2026-04-22 18:17 | 55.18140 | 12.22601 | 6287 ft | 225 kts | 13° |
| 2026-04-22 18:17 | 55.19601 | 12.23383 | 6122 ft | 216 kts | 13° |
| 2026-04-22 18:17 | 55.21014 | 12.24136 | 5836 ft | 213 kts | 13° |
| 2026-04-22 18:18 | 55.22435 | 12.24891 | 5508 ft | 212 kts | 13° |
| 2026-04-22 18:18 | 55.23846 | 12.25643 | 5196 ft | 211 kts | 13° |
| 2026-04-22 18:18 | 55.25251 | 12.26392 | 4876 ft | 210 kts | 13° |
| 2026-04-22 18:18 | 55.26652 | 12.27141 | 4549 ft | 210 kts | 12° |
| 2026-04-22 18:19 | 55.28030 | 12.27880 | 4210 ft | 210 kts | 12° |
| 2026-04-22 18:19 | 55.29442 | 12.28641 | 3894 ft | 209 kts | 12° |
| 2026-04-22 18:19 | 55.30833 | 12.29387 | 3584 ft | 209 kts | 12° |
| 2026-04-22 18:19 | 55.32209 | 12.30125 | 3281 ft | 208 kts | 12° |
| 2026-04-22 18:20 | 55.33591 | 12.30869 | 3048 ft | 205 kts | 12° |
| 2026-04-22 18:20 | 55.34966 | 12.31608 | 3009 ft | 208 kts | 12° |
| 2026-04-22 18:20 | 55.36361 | 12.32361 | 3011 ft | 210 kts | 12° |
| 2026-04-22 18:20 | 55.37759 | 12.33118 | 3011 ft | 210 kts | 12° |
| 2026-04-22 18:21 | 55.39154 | 12.33875 | 3009 ft | 209 kts | 12° |
| 2026-04-22 18:21 | 55.40543 | 12.34628 | 3010 ft | 209 kts | 11° |
| 2026-04-22 18:21 | 55.41934 | 12.35379 | 3010 ft | 209 kts | 11° |
| 2026-04-22 18:21 | 55.43288 | 12.36249 | 3008 ft | 214 kts | 24° |
| 2026-04-22 18:22 | 55.44518 | 12.37792 | 3004 ft | 218 kts | 33° |
| 2026-04-22 18:22 | 55.45673 | 12.39531 | 3011 ft | 218 kts | 34° |
| 2026-04-22 18:22 | 55.46816 | 12.41287 | 2799 ft | 217 kts | 35° |
| 2026-04-22 18:22 | 55.47960 | 12.43041 | 2448 ft | 217 kts | 35° |
| 2026-04-22 18:23 | 55.49087 | 12.44770 | 2123 ft | 217 kts | 34° |
| 2026-04-22 18:23 | 55.50207 | 12.46489 | 2003 ft | 207 kts | 34° |
| 2026-04-22 18:23 | 55.51219 | 12.48054 | 1998 ft | 181 kts | 33° |
| 2026-04-22 18:24 | 55.53000 | 12.50784 | 1662 ft | 162 kts | 33° |
| 2026-04-22 18:24 | 55.53834 | 12.52063 | 1471 ft | 155 kts | 34° |
| 2026-04-22 18:24 | 55.55421 | 12.54500 | 1058 ft | 150 kts | 33° |
| 2026-04-22 18:25 | 55.56213 | 12.55719 | 846 ft | 151 kts | 35° |
| 2026-04-22 18:25 | 55.57013 | 12.56950 | 642 ft | 152 kts | 35° |
| 2026-04-22 18:25 | 55.57816 | 12.58187 | 428 ft | 152 kts | 37° |
| 2026-04-22 18:26 | 55.59401 | 12.60633 | 59 ft | 151 kts | 36° |
| 2026-04-22 18:26 | 55.60123 | 12.61735 | 27 ft | 111 kts | 42° |
| 2026-04-22 18:26 | 55.60571 | 12.62433 | 27 ft | 62 kts | 41° |
| 2026-04-22 18:26 | 55.60819 | 12.62790 | 27 ft | 36 kts | 28° |
| 2026-04-22 18:27 | 55.61025 | 12.62886 | 24 ft | 17 kts | 12° |
| 2026-04-22 18:27 | 55.61134 | 12.62939 | 24 ft | 17 kts | 26° |
| 2026-04-22 18:27 | 55.61228 | 12.63072 | 24 ft | 18 kts | 40° |
| 2026-04-22 18:27 | 55.61327 | 12.63222 | 25 ft | 20 kts | 40° |
| 2026-04-22 18:28 | 55.61432 | 12.63392 | 25 ft | 21 kts | 40° |
| 2026-04-22 18:28 | 55.61548 | 12.63566 | 24 ft | 23 kts | 40° |
| 2026-04-22 18:28 | 55.61671 | 12.63755 | 24 ft | 24 kts | 43° |
| 2026-04-22 18:28 | 55.61793 | 12.63949 | 24 ft | 19 kts | 41° |
| 2026-04-22 18:29 | 55.61902 | 12.64094 | 24 ft | 21 kts | 24° |
| 2026-04-22 18:29 | 55.62037 | 12.64205 | 25 ft | 22 kts | 25° |
| 2026-04-22 18:29 | 55.62183 | 12.64328 | 24 ft | 24 kts | 26° |
| 2026-04-22 18:29 | 55.62262 | 12.64386 | 22 ft | 11 kts | 15° |
| 2026-04-22 18:30 | 55.62338 | 12.64423 | 25 ft | 12 kts | 15° |
| 2026-04-22 18:30 | 55.62507 | 12.64455 | 27 ft | 9 kts | 308° |
| 2026-04-22 18:30 | 55.62547 | 12.64350 | 24 ft | 11 kts | 304° |
| 2026-04-22 18:31 | 55.62606 | 12.64266 | 24 ft | 11 kts | 12° |
| 2026-04-22 18:31 | 55.62676 | 12.64321 | 24 ft | 11 kts | 22° |
| 2026-04-22 18:31 | 55.62746 | 12.64374 | 24 ft | 10 kts | 23° |
| 2026-04-22 18:31 | 55.62760 | 12.64406 | 24 ft | 0 kts | 88° |
| 2026-04-22 18:32 | 55.62761 | 12.64415 | 24 ft | 1 kts | 80° |
| 2026-04-22 18:32 | 55.62761 | 12.64422 | 24 ft | 0 kts | 94° |
| 2026-04-22 18:32 | 55.62761 | 12.64430 | 24 ft | 0 kts | 93° |
| 2026-04-22 18:32 | 55.62760 | 12.64441 | 24 ft | 1 kts | 96° |
| 2026-04-22 18:33 | 55.62758 | 12.64456 | 24 ft | 2 kts | 99° |
| 2026-04-22 18:33 | 55.62757 | 12.64473 | 24 ft | 0 kts | 101° |
| 2026-04-22 18:33 | 55.62756 | 12.64475 | 24 ft | 0 kts | 101° |